Time;durP1;ratioP1;P1;durP2;ratioP2;P2;SDS_P1;SDS_P2;PMS_P1;PMS_P2;Temp;Humidity;BMP_temperature;BMP_pressure;BME280_temperature;BME280_humidity;BME280_pressure;Samples;Min_cycle;Max_cycle;Signal;HPM_P1;HPM_P2
2022/04/13 00:01:52;;;;;;;6.47;4.13;;;13.80;99.90;;;;;;4997168;28;20557;-89
2022/04/13 00:04:18;;;;;;;5.93;4.25;;;13.70;99.90;;;;;;5013373;28;20050;-89
2022/04/13 00:06:44;;;;;;;5.90;4.53;;;13.70;99.90;;;;;;4996983;28;20049;-90
2022/04/13 00:09:10;;;;;;;8.38;4.90;;;13.70;99.90;;;;;;5013047;28;20038;-87
2022/04/13 00:11:36;;;;;;;7.45;4.13;;;13.70;99.90;;;;;;4996739;28;20046;-91
2022/04/13 00:14:02;;;;;;;7.18;4.45;;;13.80;99.90;;;;;;5014048;28;20038;-89
2022/04/13 00:16:29;;;;;;;7.60;4.65;;;13.80;99.90;;;;;;4996664;28;20045;-88
2022/04/13 00:18:55;;;;;;;6.22;4.85;;;13.70;99.90;;;;;;5012984;28;20042;-88
2022/04/13 00:21:21;;;;;;;7.70;5.40;;;13.50;99.90;;;;;;5013371;28;20062;-88
2022/04/13 00:23:46;;;;;;;7.35;5.00;;;13.40;99.90;;;;;;4996693;28;20149;-88
2022/04/13 00:26:12;;;;;;;8.77;5.22;;;13.30;99.90;;;;;;4996704;28;20034;-88
2022/04/13 00:28:38;;;;;;;8.13;5.80;;;13.20;99.90;;;;;;4996700;28;20095;-87
2022/04/13 00:31:04;;;;;;;7.28;5.00;;;13.10;99.90;;;;;;4964151;28;20045;-89
2022/04/13 00:33:29;;;;;;;9.85;5.45;;;13.10;99.90;;;;;;4996268;28;20045;-89
2022/04/13 00:35:56;;;;;;;6.35;4.85;;;13.00;99.90;;;;;;4980339;28;20103;-88
2022/04/13 00:38:22;;;;;;;6.82;4.88;;;13.00;99.90;;;;;;4996620;28;20081;-89
2022/04/13 00:40:51;;;;;;;7.78;5.45;;;13.00;99.90;;;;;;4996301;28;20087;-89
2022/04/13 00:43:17;;;;;;;8.73;5.53;;;13.00;99.90;;;;;;4996808;28;20053;-89
2022/04/13 00:45:46;;;;;;;7.55;5.05;;;12.90;99.90;;;;;;4980286;28;20494;-89
2022/04/13 00:48:29;;;;;;;7.43;4.90;;;12.90;99.90;;;;;;5012475;28;20053;-90
2022/04/13 00:50:55;;;;;;;7.25;4.85;;;12.90;99.90;;;;;;4996780;28;20049;-89
2022/04/13 00:53:23;;;;;;;7.88;5.18;;;12.80;99.90;;;;;;5012774;28;20453;-89
2022/04/13 00:55:50;;;;;;;8.15;5.00;;;12.90;99.90;;;;;;5012473;28;20046;-89
2022/04/13 00:58:19;;;;;;;10.10;5.70;;;12.90;99.90;;;;;;4997190;28;20049;-88
2022/04/13 01:00:49;;;;;;;7.80;5.35;;;12.90;99.90;;;;;;5013209;28;20061;-87
2022/04/13 01:03:18;;;;;;;8.50;4.95;;;12.80;99.90;;;;;;5017603;28;20128;-87
2022/04/13 01:05:46;;;;;;;9.00;5.40;;;12.90;99.90;;;;;;5016673;28;20050;-87
2022/04/13 01:08:13;;;;;;;7.82;5.78;;;12.90;99.90;;;;;;5016662;28;20475;-88
2022/04/13 01:10:43;;;;;;;10.35;5.70;;;12.90;99.90;;;;;;5016688;28;20053;-87
2022/04/13 01:13:10;;;;;;;8.20;5.88;;;13.10;99.90;;;;;;5001161;28;20399;-88
2022/04/13 01:15:35;;;;;;;9.02;5.60;;;13.10;99.90;;;;;;5016563;28;20060;-88
2022/04/13 01:18:02;;;;;;;8.40;5.65;;;13.00;99.90;;;;;;5016381;28;20442;-88
2022/04/13 01:20:28;;;;;;;8.50;5.80;;;13.00;99.90;;;;;;5000308;28;20076;-87
2022/04/13 01:22:54;;;;;;;9.20;5.78;;;13.00;99.90;;;;;;5000126;28;20123;-88
2022/04/13 01:25:20;;;;;;;7.63;5.55;;;13.00;99.90;;;;;;5000096;28;20049;-87
2022/04/13 01:27:45;;;;;;;8.77;5.55;;;13.00;99.90;;;;;;4999934;28;20046;-88
2022/04/13 01:30:12;;;;;;;8.30;6.25;;;12.90;99.90;;;;;;5016277;28;20045;-87
2022/04/13 01:32:38;;;;;;;9.90;6.03;;;12.80;99.90;;;;;;5016009;28;20050;-89
2022/04/13 01:35:04;;;;;;;10.93;6.43;;;12.80;99.90;;;;;;4999933;28;20041;-87
2022/04/13 01:37:30;;;;;;;8.60;6.25;;;12.70;99.90;;;;;;5000496;28;20050;-88
2022/04/13 01:39:56;;;;;;;8.57;6.40;;;12.80;99.90;;;;;;4999881;28;20056;-88
2022/04/13 01:42:22;;;;;;;9.35;6.00;;;12.70;99.90;;;;;;4983537;28;20479;-88
2022/04/13 01:44:48;;;;;;;8.95;6.00;;;12.60;99.90;;;;;;5016080;28;20128;-88
2022/04/13 01:47:14;;;;;;;8.63;6.30;;;12.60;99.90;;;;;;5016051;28;20085;-88
2022/04/13 01:49:40;;;;;;;8.90;5.95;;;12.50;99.90;;;;;;4999759;28;20065;-88
2022/04/13 01:52:08;;;;;;;10.00;5.80;;;12.40;99.90;;;;;;5015597;28;20060;-87
2022/04/13 01:54:34;;;;;;;10.85;6.50;;;12.30;99.90;;;;;;4983429;28;20574;-88
2022/04/13 01:56:59;;;;;;;7.93;6.25;;;12.30;99.90;;;;;;4983129;28;20196;-88
2022/04/13 01:59:26;;;;;;;9.98;7.00;;;12.30;99.90;;;;;;5016510;28;20050;-88
2022/04/13 02:01:52;;;;;;;9.15;7.18;;;12.30;99.90;;;;;;4983538;28;20048;-87
2022/04/13 02:04:26;;;;;;;8.38;6.53;;;12.30;99.90;;;;;;5015680;28;20092;-87
2022/04/13 02:06:53;;;;;;;10.05;6.93;;;12.30;99.90;;;;;;5015248;28;20050;-86
2022/04/13 02:09:19;;;;;;;8.48;6.32;;;12.20;99.90;;;;;;4999104;28;20050;-87
2022/04/13 02:11:46;;;;;;;9.85;6.63;;;12.10;99.90;;;;;;4998989;28;20046;-88
2022/04/13 02:14:12;;;;;;;10.93;6.85;;;12.10;99.90;;;;;;5015705;28;20457;-87
2022/04/13 02:16:39;;;;;;;8.57;6.57;;;12.10;99.90;;;;;;4998667;28;20129;-89
2022/04/13 02:19:07;;;;;;;10.23;6.65;;;11.90;99.90;;;;;;5015270;28;20093;-88
2022/04/13 02:21:36;;;;;;;11.73;7.38;;;11.80;99.90;;;;;;4998907;28;20085;-88
2022/04/13 02:24:02;;;;;;;9.40;6.80;;;11.70;99.90;;;;;;4999724;28;20108;-89
2022/04/13 02:26:27;;;;;;;8.52;7.22;;;11.70;99.90;;;;;;5015547;28;20049;-88
2022/04/13 02:28:53;;;;;;;11.07;7.22;;;11.60;99.90;;;;;;5015474;28;20525;-88
2022/04/13 02:31:19;;;;;;;10.95;6.80;;;11.50;99.90;;;;;;4998924;28;20455;-88
2022/04/13 02:33:45;;;;;;;9.95;6.55;;;11.50;99.90;;;;;;4983361;28;20057;-88
2022/04/13 02:36:11;;;;;;;12.10;7.07;;;11.50;99.90;;;;;;5015699;28;20124;-88
2022/04/13 02:38:37;;;;;;;11.13;7.22;;;11.40;99.90;;;;;;4999342;28;20104;-88
2022/04/13 02:41:04;;;;;;;9.85;7.13;;;11.40;99.90;;;;;;4998669;28;20395;-88
2022/04/13 02:43:29;;;;;;;9.85;6.60;;;11.50;99.90;;;;;;4998652;28;20060;-88
2022/04/13 02:45:57;;;;;;;10.50;6.80;;;11.50;99.90;;;;;;4998625;28;20046;-88
2022/04/13 02:48:23;;;;;;;10.18;6.85;;;11.50;99.90;;;;;;4982254;28;20053;-88
2022/04/13 02:50:49;;;;;;;8.82;7.10;;;11.60;99.90;;;;;;4982364;28;20076;-88
2022/04/13 02:53:15;;;;;;;9.50;6.22;;;11.60;99.90;;;;;;4998430;28;20050;-88
2022/04/13 02:55:41;;;;;;;9.07;6.50;;;11.60;99.90;;;;;;4998315;28;20050;-88
2022/04/13 02:58:07;;;;;;;9.75;6.55;;;11.60;99.90;;;;;;4998370;28;20076;-88
2022/04/13 03:00:33;;;;;;;9.95;6.72;;;11.60;99.90;;;;;;4982404;28;20480;-89
2022/04/13 03:02:59;;;;;;;11.88;7.13;;;11.50;99.90;;;;;;4998217;28;20046;-88
2022/04/13 03:05:25;;;;;;;10.18;7.68;;;11.50;99.90;;;;;;5014578;28;20042;-88
2022/04/13 03:07:51;;;;;;;11.20;7.47;;;11.50;99.90;;;;;;4998222;28;20049;-89
2022/04/13 03:10:17;;;;;;;11.48;7.00;;;11.50;99.90;;;;;;4998136;28;20487;-88
2022/04/13 03:12:42;;;;;;;12.20;7.53;;;11.40;99.90;;;;;;4998315;28;20050;-89
2022/04/13 03:15:09;;;;;;;11.27;6.60;;;11.40;99.90;;;;;;5014354;28;20050;-89
2022/04/13 03:17:35;;;;;;;11.60;7.30;;;11.30;99.90;;;;;;5014779;28;20096;-88
2022/04/13 03:20:01;;;;;;;12.13;7.65;;;11.20;99.90;;;;;;4997930;28;20139;-88
2022/04/13 03:22:27;;;;;;;9.70;6.75;;;11.10;99.90;;;;;;4981702;28;20037;-88
2022/04/13 03:24:53;;;;;;;9.68;6.97;;;11.00;99.90;;;;;;4997134;28;20050;-87
2022/04/13 03:27:19;;;;;;;12.13;7.25;;;11.10;99.90;;;;;;4998064;28;20057;-88
2022/04/13 03:29:45;;;;;;;10.98;7.45;;;11.20;99.90;;;;;;4997715;28;20042;-87
2022/04/13 03:32:11;;;;;;;9.55;7.22;;;11.30;99.90;;;;;;4998405;28;20121;-87
2022/04/13 03:34:37;;;;;;;10.18;7.15;;;11.40;99.90;;;;;;5014130;28;20494;-87
2022/04/13 03:37:03;;;;;;;9.85;7.32;;;11.50;99.90;;;;;;5014443;28;20045;-88
2022/04/13 03:39:29;;;;;;;10.15;7.85;;;11.60;99.90;;;;;;4998250;28;20049;-88
2022/04/13 03:41:55;;;;;;;10.93;7.47;;;11.70;99.90;;;;;;5014189;28;20140;-87
2022/04/13 03:44:21;;;;;;;12.80;7.85;;;11.70;99.90;;;;;;4998246;28;20084;-88
2022/04/13 03:46:47;;;;;;;12.50;8.10;;;11.70;99.90;;;;;;4997816;28;20407;-89
2022/04/13 03:49:13;;;;;;;12.52;7.38;;;11.60;99.90;;;;;;4996769;28;20057;-88
2022/04/13 03:51:38;;;;;;;9.75;7.10;;;11.50;99.90;;;;;;4997460;28;20599;-89
2022/04/13 03:54:04;;;;;;;11.90;7.68;;;11.40;99.90;;;;;;5013645;28;20057;-88
2022/04/13 03:56:30;;;;;;;11.65;7.85;;;11.30;99.90;;;;;;4997176;28;20050;-88
2022/04/13 03:58:59;;;;;;;10.30;7.85;;;11.20;99.90;;;;;;5014363;28;20046;-88
2022/04/13 04:01:25;;;;;;;15.75;8.88;;;11.00;99.90;;;;;;4981027;28;20057;-89
2022/04/13 04:03:51;;;;;;;15.07;9.05;;;11.00;99.90;;;;;;4997314;28;20506;-87
2022/04/13 04:06:17;;;;;;;11.77;8.63;;;11.00;99.90;;;;;;5013712;28;20140;-87
2022/04/13 04:08:43;;;;;;;12.73;8.45;;;11.10;99.90;;;;;;4996721;28;20053;-88
2022/04/13 04:11:09;;;;;;;11.93;8.75;;;11.10;99.90;;;;;;4997094;28;20049;-88
2022/04/13 04:13:35;;;;;;;15.70;9.00;;;11.20;99.90;;;;;;4980931;28;20057;-88
2022/04/13 04:16:01;;;;;;;12.98;8.85;;;11.20;99.90;;;;;;5013230;28;20045;-88
2022/04/13 04:18:27;;;;;;;13.75;8.48;;;11.30;99.90;;;;;;4981479;28;20058;-88
2022/04/13 04:20:53;;;;;;;13.50;9.38;;;11.30;99.90;;;;;;4981507;28;20099;-87
2022/04/13 04:23:19;;;;;;;13.77;8.35;;;11.40;99.90;;;;;;5013308;28;20404;-88
2022/04/13 04:25:45;;;;;;;13.32;8.52;;;11.50;99.90;;;;;;4996810;28;20058;-87
2022/04/13 04:28:11;;;;;;;13.02;8.35;;;11.50;99.90;;;;;;4996714;28;20041;-88
2022/04/13 04:30:41;;;;;;;12.40;9.45;;;11.50;99.90;;;;;;4996750;28;20037;-88
2022/04/13 04:33:08;;;;;;;11.93;8.30;;;11.60;99.90;;;;;;5012877;28;20445;-88
2022/04/13 04:35:35;;;;;;;10.70;8.05;;;11.60;99.90;;;;;;4996747;28;20081;-88
2022/04/13 04:38:02;;;;;;;13.75;8.45;;;11.50;99.90;;;;;;4980251;28;20054;-88
2022/04/13 04:40:28;;;;;;;13.82;8.02;;;11.60;99.90;;;;;;4996522;28;20042;-88
2022/04/13 04:42:54;;;;;;;11.88;8.40;;;11.60;99.90;;;;;;5012861;28;20099;-87
2022/04/13 04:45:21;;;;;;;13.63;8.60;;;11.60;99.90;;;;;;5012844;28;20049;-88
2022/04/13 04:47:48;;;;;;;11.52;8.68;;;11.50;99.90;;;;;;4996215;28;20049;-87
2022/04/13 04:50:19;;;;;;;13.85;8.70;;;11.50;99.90;;;;;;5013594;28;20100;-87
2022/04/13 04:52:46;;;;;;;11.07;7.90;;;11.40;99.90;;;;;;4997399;28;20037;-87
2022/04/13 04:55:14;;;;;;;11.85;8.75;;;11.30;99.90;;;;;;5012716;28;20050;-88
2022/04/13 04:57:40;;;;;;;13.93;8.45;;;11.30;99.90;;;;;;5012538;28;20521;-89
2022/04/13 05:00:08;;;;;;;15.68;9.35;;;11.30;99.90;;;;;;5013019;28;20050;-87
2022/04/13 05:02:35;;;;;;;11.75;8.25;;;11.30;99.90;;;;;;5013487;28;20072;-87
2022/04/13 05:05:02;;;;;;;12.80;8.63;;;11.20;99.90;;;;;;5012630;28;20125;-87
2022/04/13 05:07:27;;;;;;;12.90;9.48;;;11.20;99.90;;;;;;5013415;28;20053;-87
2022/04/13 05:09:53;;;;;;;14.50;8.85;;;11.20;99.90;;;;;;5013393;28;20509;-87
2022/04/13 05:12:19;;;;;;;12.27;8.57;;;11.30;99.90;;;;;;4980291;28;20108;-87
2022/04/13 05:14:44;;;;;;;14.70;9.85;;;11.30;99.90;;;;;;4996299;28;20494;-87
2022/04/13 05:17:10;;;;;;;14.35;9.90;;;11.30;99.90;;;;;;4996924;28;20046;-87
2022/04/13 05:19:36;;;;;;;12.63;8.43;;;11.30;99.90;;;;;;5012486;28;20100;-87
2022/04/13 05:22:02;;;;;;;12.85;8.77;;;11.30;99.90;;;;;;5012556;28;20071;-88
2022/04/13 05:24:28;;;;;;;11.60;8.90;;;11.20;99.90;;;;;;4980841;28;20045;-87
2022/04/13 05:26:54;;;;;;;13.13;9.18;;;11.20;99.90;;;;;;4996155;28;20152;-88
2022/04/13 05:29:21;;;;;;;13.45;9.20;;;11.20;99.90;;;;;;4964197;28;20054;-87
2022/04/13 05:31:47;;;;;;;15.00;9.95;;;11.30;99.90;;;;;;5012680;28;20046;-88
2022/04/13 05:34:13;;;;;;;14.52;9.32;;;11.40;99.90;;;;;;4996773;28;20057;-87
2022/04/13 05:36:38;;;;;;;15.25;9.38;;;11.40;99.90;;;;;;4996118;28;20081;-88
2022/04/13 05:39:04;;;;;;;17.60;9.95;;;11.40;99.90;;;;;;4996249;28;20430;-88
2022/04/13 05:41:30;;;;;;;14.07;9.32;;;11.40;99.90;;;;;;5012375;28;20049;-88
2022/04/13 05:43:55;;;;;;;16.63;10.02;;;11.40;99.90;;;;;;4995878;28;20053;-86
2022/04/13 05:46:21;;;;;;;17.05;10.80;;;11.30;99.90;;;;;;4979952;28;20044;-86
2022/04/13 05:48:47;;;;;;;15.30;9.98;;;11.40;99.90;;;;;;5015240;28;20388;-87
2022/04/13 05:51:13;;;;;;;15.65;10.38;;;11.50;99.90;;;;;;4999572;28;20058;-89
2022/04/13 05:53:39;;;;;;;17.90;10.93;;;11.60;99.90;;;;;;5016763;28;20104;-87
2022/04/13 05:56:05;;;;;;;21.33;12.00;;;11.60;99.90;;;;;;4983288;28;20112;-87
2022/04/13 05:58:31;;;;;;;20.83;11.30;;;11.70;99.90;;;;;;4999543;28;20054;-87
2022/04/13 06:00:57;;;;;;;17.13;11.88;;;11.80;99.90;;;;;;5015778;28;20052;-87
2022/04/13 06:03:23;;;;;;;17.42;11.60;;;11.80;99.90;;;;;;4999247;28;20084;-87
2022/04/13 06:05:50;;;;;;;20.08;10.82;;;11.90;99.90;;;;;;4999021;28;20060;-87
2022/04/13 06:08:17;;;;;;;22.27;12.20;;;12.00;99.90;;;;;;5015650;28;20542;-88
2022/04/13 06:10:43;;;;;;;19.30;11.65;;;12.00;99.90;;;;;;4998833;28;20049;-86
2022/04/13 06:13:09;;;;;;;18.27;12.40;;;12.10;99.90;;;;;;4983170;28;20504;-87
2022/04/13 06:15:35;;;;;;;18.65;11.98;;;12.10;99.90;;;;;;4999078;28;20128;-87
2022/04/13 06:18:00;;;;;;;18.45;11.98;;;12.10;99.90;;;;;;4998508;28;20045;-86
2022/04/13 06:20:26;;;;;;;15.38;11.02;;;12.10;99.90;;;;;;4998721;28;20050;-87
2022/04/13 06:22:52;;;;;;;17.90;11.02;;;12.20;99.90;;;;;;4999198;28;20057;-85
2022/04/13 06:25:19;;;;;;;17.45;10.80;;;12.20;99.90;;;;;;5017595;28;20103;-86
2022/04/13 06:27:44;;;;;;;19.60;11.27;;;12.20;99.90;;;;;;5002046;28;20133;-86
2022/04/13 06:30:11;;;;;;;15.70;10.73;;;12.30;99.90;;;;;;4998854;28;20435;-85
2022/04/13 06:32:42;;;;;;;16.67;11.60;;;12.30;99.90;;;;;;5014808;28;20159;-87
2022/04/13 06:35:11;;;;;;;18.02;11.93;;;12.30;99.90;;;;;;4982352;28;20049;-86
2022/04/13 06:37:39;;;;;;;19.42;12.25;;;12.30;99.90;;;;;;5014721;28;20045;-86
2022/04/13 06:40:06;;;;;;;15.18;10.93;;;12.30;99.90;;;;;;5017824;28;20475;-86
2022/04/13 06:42:37;;;;;;;20.52;11.65;;;12.40;99.90;;;;;;5015706;28;20042;-86
2022/04/13 06:45:04;;;;;;;18.35;11.55;;;12.40;99.90;;;;;;5014629;28;20483;-86
2022/04/13 06:47:29;;;;;;;18.25;11.50;;;12.50;99.90;;;;;;4998511;28;20144;-86
2022/04/13 06:49:56;;;;;;;16.80;11.27;;;12.60;99.90;;;;;;4998173;28;20133;-86
2022/04/13 06:52:21;;;;;;;19.17;12.70;;;12.70;99.90;;;;;;4998492;28;20054;-85
2022/04/13 06:54:47;;;;;;;21.40;12.40;;;12.80;99.90;;;;;;4983432;28;20072;-83
2022/04/13 06:57:13;;;;;;;20.83;11.50;;;12.90;99.90;;;;;;4999047;28;20173;-85
2022/04/13 06:59:39;;;;;;;20.23;12.02;;;13.00;99.90;;;;;;4998093;28;20054;-85
2022/04/13 07:02:12;;;;;;;18.15;11.73;;;13.10;99.90;;;;;;5014543;28;20049;-86
2022/04/13 07:04:38;;;;;;;18.83;12.38;;;13.20;99.90;;;;;;4998787;28;20436;-85
2022/04/13 07:07:05;;;;;;;15.88;11.10;;;13.30;99.90;;;;;;5014585;28;20487;-85
2022/04/13 07:09:31;;;;;;;21.20;11.43;;;13.40;99.90;;;;;;5014149;28;20401;-85
2022/04/13 07:11:56;;;;;;;18.20;11.48;;;13.60;99.90;;;;;;4997987;28;20045;-85
2022/04/13 07:14:22;;;;;;;18.30;10.93;;;13.60;99.90;;;;;;5014144;28;20053;-84
2022/04/13 07:16:48;;;;;;;19.38;11.32;;;13.60;99.90;;;;;;5014146;28;20045;-86
2022/04/13 07:19:14;;;;;;;19.67;11.07;;;13.70;99.90;;;;;;5014952;28;20053;-86
2022/04/13 07:21:40;;;;;;;19.50;11.48;;;13.80;99.90;;;;;;5014947;28;20042;-85
2022/04/13 07:24:06;;;;;;;19.58;11.10;;;13.80;99.90;;;;;;5014161;28;20042;-84
2022/04/13 07:26:32;;;;;;;16.33;9.98;;;13.90;99.90;;;;;;4997791;28;20092;-84
2022/04/13 07:28:58;;;;;;;18.92;10.60;;;13.90;99.90;;;;;;5014025;28;20088;-84
2022/04/13 07:31:24;;;;;;;14.25;10.18;;;14.00;99.90;;;;;;4997668;28;20056;-86
2022/04/13 07:33:50;;;;;;;16.30;10.00;;;14.00;99.90;;;;;;4997867;28;20041;-86
2022/04/13 07:36:16;;;;;;;14.23;9.95;;;14.10;99.90;;;;;;4981904;28;20048;-86
2022/04/13 07:38:41;;;;;;;16.33;10.68;;;14.20;99.90;;;;;;5014651;28;20058;-83
2022/04/13 07:41:07;;;;;;;13.95;9.73;;;14.30;99.90;;;;;;4997353;28;20049;-85
2022/04/13 07:43:33;;;;;;;14.98;9.70;;;14.40;99.90;;;;;;5013747;28;20046;-83
2022/04/13 07:45:59;;;;;;;19.42;9.65;;;14.40;99.90;;;;;;5013927;28;20045;-82
2022/04/13 07:48:25;;;;;;;17.40;9.98;;;14.50;99.90;;;;;;4996898;28;20491;-81
2022/04/13 07:50:50;;;;;;;14.98;8.55;;;14.60;99.90;;;;;;4981076;28;20049;-83
2022/04/13 07:53:16;;;;;;;14.90;9.23;;;14.70;99.90;;;;;;5013857;28;20124;-84
2022/04/13 07:55:42;;;;;;;12.82;8.40;;;14.90;99.90;;;;;;4997251;28;20124;-85
2022/04/13 07:58:08;;;;;;;12.90;8.32;;;15.00;99.90;;;;;;5013447;28;20050;-80
2022/04/13 08:00:34;;;;;;;11.90;8.07;;;15.10;99.90;;;;;;5014550;28;20085;-86
2022/04/13 08:03:00;;;;;;;10.50;7.32;;;15.20;99.90;;;;;;5012966;28;20054;-85
2022/04/13 08:05:26;;;;;;;11.00;7.85;;;15.20;99.90;;;;;;5013314;28;20125;-85
2022/04/13 08:07:51;;;;;;;12.07;8.20;;;15.20;99.90;;;;;;5013355;28;20049;-86
2022/04/13 08:10:17;;;;;;;13.63;8.00;;;15.10;99.90;;;;;;4980331;28;20141;-86
2022/04/13 08:12:46;;;;;;;12.18;6.63;;;15.10;99.90;;;;;;5013977;28;20081;-84
2022/04/13 08:15:13;;;;;;;10.18;6.85;;;15.10;99.90;;;;;;5013958;28;20451;-85
2022/04/13 08:17:40;;;;;;;9.18;4.57;;;15.20;99.90;;;;;;5013582;28;20045;-83
2022/04/13 08:20:14;;;;;;;6.45;4.93;;;15.30;99.90;;;;;;5013832;28;20056;-85
2022/04/13 08:22:41;;;;;;;7.38;4.82;;;15.40;99.90;;;;;;5013164;28;20487;-86
2022/04/13 08:25:07;;;;;;;11.00;5.93;;;15.50;99.90;;;;;;5013274;28;20060;-83
2022/04/13 08:27:33;;;;;;;8.27;4.78;;;15.60;99.90;;;;;;5012894;28;20053;-84
2022/04/13 08:29:58;;;;;;;6.40;4.50;;;15.60;99.90;;;;;;5013183;28;20349;-81
2022/04/13 08:32:24;;;;;;;8.43;5.18;;;15.60;99.90;;;;;;5012875;28;20042;-83
2022/04/13 08:34:54;;;;;;;8.20;5.47;;;15.60;99.90;;;;;;5013194;28;20467;-82
2022/04/13 08:37:20;;;;;;;8.13;5.13;;;15.50;99.90;;;;;;5013758;28;20525;-83
2022/04/13 08:39:46;;;;;;;9.90;5.22;;;15.50;99.90;;;;;;4996375;28;20049;-84
2022/04/13 08:42:25;;;;;;;8.68;5.75;;;15.50;99.90;;;;;;5013409;28;20073;-85
2022/04/13 08:44:52;;;;;;;9.30;5.75;;;15.50;99.90;;;;;;5012822;28;20056;-84
2022/04/13 08:47:22;;;;;;;9.32;5.40;;;15.50;99.90;;;;;;5012829;28;20065;-82
2022/04/13 08:49:53;;;;;;;11.15;7.25;;;15.50;99.90;;;;;;4979973;28;20139;-83
2022/04/13 08:52:30;;;;;;;8.93;5.68;;;15.50;99.90;;;;;;5012665;28;20061;-83
2022/04/13 08:55:07;;;;;;;15.43;7.82;;;15.50;99.90;;;;;;5012298;28;20050;-84
2022/04/13 08:57:44;;;;;;;12.85;6.43;;;15.40;99.90;;;;;;4996676;28;20099;-83
2022/04/13 09:00:15;;;;;;;11.80;7.95;;;15.40;99.90;;;;;;5013103;28;20497;-81
2022/04/13 09:02:50;;;;;;;12.02;8.00;;;15.40;99.90;;;;;;5013352;28;20054;-83
2022/04/13 09:05:19;;;;;;;12.38;7.80;;;15.50;99.90;;;;;;5012494;28;20050;-84
2022/04/13 09:07:53;;;;;;;13.63;8.52;;;15.60;99.90;;;;;;5013529;28;20062;-84
2022/04/13 09:10:21;;;;;;;12.68;7.80;;;15.60;99.90;;;;;;5012573;28;20053;-84
2022/04/13 09:12:50;;;;;;;12.52;8.13;;;15.50;99.90;;;;;;5011976;28;20117;-82
2022/04/13 09:15:16;;;;;;;11.98;7.53;;;15.50;99.90;;;;;;5012276;28;20125;-85
2022/04/13 09:17:42;;;;;;;13.57;7.72;;;15.40;99.90;;;;;;5012403;28;20176;-85
2022/04/13 09:20:10;;;;;;;10.27;6.90;;;15.40;99.90;;;;;;5012607;28;20184;-83
2022/04/13 09:22:37;;;;;;;12.88;7.50;;;15.50;99.90;;;;;;5015205;28;20414;-83
2022/04/13 09:25:05;;;;;;;11.23;6.90;;;15.50;99.90;;;;;;4999532;28;20061;-85
2022/04/13 09:27:32;;;;;;;11.60;6.80;;;15.60;99.90;;;;;;5000599;28;20050;-84
2022/04/13 09:29:58;;;;;;;11.02;7.00;;;15.70;99.90;;;;;;5016343;28;20050;-85
2022/04/13 09:32:23;;;;;;;15.77;7.78;;;15.80;99.90;;;;;;5015787;28;20052;-85
2022/04/13 09:34:51;;;;;;;10.05;7.25;;;15.90;99.90;;;;;;5016270;28;20100;-82
2022/04/13 09:37:18;;;;;;;11.38;7.45;;;16.00;99.90;;;;;;5016100;28;20116;-85
2022/04/13 09:39:45;;;;;;;11.98;7.45;;;16.10;99.90;;;;;;5015861;28;20046;-84
2022/04/13 09:42:13;;;;;;;12.95;7.30;;;16.00;99.90;;;;;;5016943;28;20136;-84
2022/04/13 09:44:41;;;;;;;8.75;6.05;;;16.10;99.90;;;;;;5016309;28;20157;-84
2022/04/13 09:47:08;;;;;;;10.82;5.95;;;16.20;99.90;;;;;;5015820;28;20053;-84
2022/04/13 09:49:34;;;;;;;11.73;6.53;;;16.20;99.90;;;;;;5015310;28;20138;-84
2022/04/13 09:52:00;;;;;;;10.43;7.00;;;16.40;99.90;;;;;;5016051;28;20168;-85
2022/04/13 09:54:27;;;;;;;9.40;5.60;;;16.60;99.90;;;;;;4983374;28;20046;-84
2022/04/13 09:56:53;;;;;;;8.00;5.03;;;16.70;99.90;;;;;;5015459;28;20042;-83
2022/04/13 09:59:30;;;;;;;9.02;5.60;;;16.80;99.90;;;;;;5015307;28;20594;-81
2022/04/13 10:01:57;;;;;;;8.77;6.00;;;16.70;99.90;;;;;;5015880;28;20054;-83
2022/04/13 10:04:30;;;;;;;8.90;5.82;;;16.70;99.90;;;;;;4999280;28;20057;-83
2022/04/13 10:07:21;;;;;;;10.10;6.07;;;16.60;99.90;;;;;;5015488;28;20505;-83
2022/04/13 10:09:47;;;;;;;9.07;6.55;;;16.60;99.90;;;;;;5015828;28;20387;-84
2022/04/13 10:12:13;;;;;;;10.10;5.47;;;16.70;99.90;;;;;;5016083;28;20041;-84
2022/04/13 10:14:38;;;;;;;10.07;6.13;;;16.80;99.90;;;;;;5015377;28;20562;-84
2022/04/13 10:17:09;;;;;;;9.13;5.78;;;16.80;99.90;;;;;;5016835;28;20383;-84
2022/04/13 10:19:38;;;;;;;11.15;6.97;;;16.90;99.90;;;;;;5015109;28;20057;-84
2022/04/13 10:22:04;;;;;;;8.85;6.18;;;17.10;99.90;;;;;;5015149;28;20057;-82
2022/04/13 10:24:34;;;;;;;9.73;6.32;;;17.10;99.90;;;;;;5015304;28;20046;-84
2022/04/13 10:27:11;;;;;;;11.60;6.65;;;17.20;99.90;;;;;;5015197;28;20053;-84
2022/04/13 10:29:39;;;;;;;10.23;6.18;;;17.40;99.90;;;;;;5015492;28;20054;-84
2022/04/13 10:32:18;;;;;;;9.95;5.90;;;17.40;99.90;;;;;;5015776;28;20052;-84
2022/04/13 10:34:49;;;;;;;11.40;6.20;;;17.30;99.90;;;;;;4999054;28;20152;-83
2022/04/13 10:37:17;;;;;;;8.73;4.93;;;17.50;99.90;;;;;;5014848;28;20072;-83
2022/04/13 10:39:45;;;;;;;8.23;5.38;;;17.70;99.90;;;;;;5014965;28;20053;-86
2022/04/13 10:42:13;;;;;;;8.15;5.40;;;17.70;99.90;;;;;;5015188;28;20049;-84
2022/04/13 10:44:52;;;;;;;8.48;5.45;;;17.60;99.90;;;;;;5015680;28;20060;-85
2022/04/13 10:47:24;;;;;;;8.23;5.93;;;17.40;99.90;;;;;;5015662;28;20052;-84
2022/04/13 10:50:01;;;;;;;10.25;5.57;;;17.20;99.90;;;;;;5014127;28;20062;-83
2022/04/13 10:52:47;;;;;;;8.60;5.85;;;17.10;99.90;;;;;;4998666;28;20062;-83
2022/04/13 10:55:14;;;;;;;8.35;5.78;;;17.10;99.90;;;;;;5015023;28;20060;-84
2022/04/13 10:58:01;;;;;;;7.38;4.80;;;17.10;99.90;;;;;;5015214;28;20097;-84
2022/04/13 11:00:29;;;;;;;10.63;5.72;;;17.10;99.90;;;;;;4998121;28;20054;-82
2022/04/13 11:03:06;;;;;;;8.65;5.78;;;17.20;99.90;;;;;;5014591;28;20054;-82
2022/04/13 11:05:33;;;;;;;7.78;5.97;;;17.30;99.90;;;;;;5014796;28;20049;-82
2022/04/13 11:08:25;;;;;;;9.13;5.80;;;17.30;99.90;;;;;;5013920;28;20053;-83
2022/04/13 11:10:51;;;;;;;9.63;5.53;;;17.40;99.90;;;;;;5015169;28;20054;-82
2022/04/13 11:13:19;;;;;;;8.45;5.35;;;17.40;99.90;;;;;;5015104;28;20367;-83
2022/04/13 11:15:48;;;;;;;9.75;5.25;;;17.40;99.90;;;;;;4998767;28;20053;-83
2022/04/13 11:18:17;;;;;;;8.35;5.25;;;17.40;99.90;;;;;;4997563;28;20041;-84
2022/04/13 11:21:01;;;;;;;8.60;5.65;;;17.40;99.90;;;;;;5014216;28;20046;-83
2022/04/13 11:23:47;;;;;;;8.95;5.70;;;17.30;99.90;;;;;;5014217;28;20069;-84
2022/04/13 11:26:13;;;;;;;7.63;4.88;;;17.20;99.90;;;;;;5014595;28;20069;-85
2022/04/13 11:28:38;;;;;;;9.60;5.80;;;17.10;99.90;;;;;;5014771;28;20081;-85
2022/04/13 11:31:09;;;;;;;7.43;5.20;;;17.10;99.90;;;;;;5013903;28;20092;-83
2022/04/13 11:33:49;;;;;;;7.78;5.05;;;17.10;99.90;;;;;;5013875;28;20042;-83
2022/04/13 11:36:16;;;;;;;8.07;5.22;;;17.10;99.90;;;;;;5013817;28;20046;-82
2022/04/13 11:38:49;;;;;;;11.48;5.95;;;17.10;99.90;;;;;;4981264;28;20092;-82
2022/04/13 11:41:15;;;;;;;8.85;5.20;;;17.10;99.90;;;;;;5013714;28;20503;-82
2022/04/13 11:43:41;;;;;;;8.35;5.88;;;17.10;99.90;;;;;;5014382;28;20501;-83
2022/04/13 11:46:11;;;;;;;9.25;6.00;;;17.10;99.90;;;;;;5013756;28;20054;-81
2022/04/13 11:48:37;;;;;;;11.30;5.53;;;17.10;99.90;;;;;;5013231;28;20065;-84
2022/04/13 11:51:27;;;;;;;8.35;5.78;;;17.10;99.90;;;;;;5013837;28;20052;-83
2022/04/13 11:54:04;;;;;;;7.63;5.32;;;17.00;99.90;;;;;;5013579;28;20057;-82
2022/04/13 11:56:39;;;;;;;8.65;4.80;;;17.00;99.90;;;;;;5014319;28;20081;-83
2022/04/13 11:59:06;;;;;;;7.77;5.13;;;16.90;99.90;;;;;;5013883;28;20045;-79
2022/04/13 12:01:33;;;;;;;8.43;5.55;;;17.00;99.90;;;;;;4997026;28;20308;-84
2022/04/13 12:04:03;;;;;;;7.05;5.30;;;16.90;99.90;;;;;;5014186;28;20080;-83
2022/04/13 12:06:31;;;;;;;7.50;4.13;;;16.90;99.90;;;;;;5013325;28;20072;-82
2022/04/13 12:08:59;;;;;;;7.60;3.70;;;17.00;99.90;;;;;;5013610;28;20057;-81
2022/04/13 12:11:40;;;;;;;7.43;3.70;;;17.00;99.90;;;;;;5013330;28;20057;-81
2022/04/13 12:14:08;;;;;;;7.15;3.15;;;17.00;99.90;;;;;;5013502;28;20058;-81
2022/04/13 12:16:34;;;;;;;5.25;2.80;;;17.10;99.90;;;;;;5013878;28;20393;-82
2022/04/13 12:19:05;;;;;;;3.53;2.60;;;17.30;99.90;;;;;;5013386;28;20046;-82
2022/04/13 12:21:34;;;;;;;5.05;2.85;;;17.40;99.90;;;;;;5014186;28;20053;-81
2022/04/13 12:24:06;;;;;;;5.20;3.00;;;17.40;99.90;;;;;;4981392;28;20129;-81
2022/04/13 12:26:37;;;;;;;3.47;2.65;;;17.50;99.90;;;;;;5013073;28;20467;-82
2022/04/13 12:29:22;;;;;;;7.28;3.25;;;17.60;99.90;;;;;;4996955;28;20085;-80
2022/04/13 12:31:52;;;;;;;6.85;3.42;;;17.70;99.90;;;;;;5013694;28;20045;-82
2022/04/13 12:34:19;;;;;;;7.38;3.95;;;17.70;99.90;;;;;;5012884;28;20073;-82
2022/04/13 12:36:50;;;;;;;6.80;3.50;;;17.60;99.90;;;;;;5012816;28;20045;-82
2022/04/13 12:39:15;;;;;;;6.60;3.67;;;17.50;99.90;;;;;;5012610;28;20046;-80
2022/04/13 12:41:41;;;;;;;6.93;4.22;;;17.50;99.90;;;;;;4996681;28;20057;-81
2022/04/13 12:44:07;;;;;;;6.72;3.03;;;17.40;99.90;;;;;;5012386;28;20045;-81